createdAt,value
2019-03-28T00:00:59.054Z,56.50
2019-03-28T00:04:05.082Z,55.90
2019-03-28T00:07:10.011Z,56.50
2019-03-28T00:10:14.863Z,56.40
2019-03-28T00:13:19.745Z,56.50
2019-03-28T00:16:24.668Z,56.30
2019-03-28T00:19:29.539Z,56.30
2019-03-28T00:22:46.196Z,56.40
2019-03-28T00:25:51.011Z,56.30
2019-03-28T00:28:55.843Z,56.30
2019-03-28T00:32:00.674Z,56.40
2019-03-28T00:35:05.977Z,56.40
2019-03-28T00:38:11.006Z,56.50
2019-03-28T00:41:15.952Z,56.50
2019-03-28T00:44:20.842Z,56.50
2019-03-28T00:47:25.813Z,56.60
2019-03-28T00:50:33.079Z,56.70
2019-03-28T00:53:37.323Z,57.10
2019-03-28T00:56:46.731Z,56.90
2019-03-28T00:59:49.235Z,57.00
2019-03-28T01:02:54.276Z,57.10
2019-03-28T01:05:59.137Z,57.20
2019-03-28T01:09:06.373Z,57.10
2019-03-28T01:12:11.305Z,57.30
2019-03-28T01:15:16.202Z,57.60
2019-03-28T01:18:21.138Z,57.60
2019-03-28T01:21:26.049Z,57.70
2019-03-28T01:24:31.107Z,57.70
2019-03-28T01:27:36.019Z,57.90
2019-03-28T01:30:40.887Z,57.90
2019-03-28T01:33:45.791Z,57.90
2019-03-28T01:36:50.724Z,58.00
2019-03-28T01:39:55.656Z,58.30
2019-03-28T01:43:00.512Z,58.10
2019-03-28T01:46:05.515Z,58.10
2019-03-28T01:49:10.450Z,58.20
2019-03-28T01:52:15.350Z,58.40
2019-03-28T01:55:21.115Z,58.50
2019-03-28T01:58:26.048Z,58.60
2019-03-28T02:01:31.108Z,58.80
2019-03-28T02:04:36.018Z,59.00
2019-03-28T02:07:40.944Z,59.20
2019-03-28T02:10:45.890Z,59.00
2019-03-28T02:13:50.827Z,58.90
2019-03-28T02:16:55.733Z,59.20
2019-03-28T02:20:00.668Z,59.30
2019-03-28T02:23:05.582Z,59.50
2019-03-28T02:26:10.538Z,59.50
2019-03-28T02:29:15.550Z,59.90
2019-03-28T02:32:20.585Z,59.80
2019-03-28T02:35:25.408Z,59.60
2019-03-28T02:38:30.315Z,59.80
2019-03-28T02:41:35.233Z,59.80
2019-03-28T02:44:40.069Z,60.00
2019-03-28T02:47:44.967Z,60.00
2019-03-28T02:50:49.892Z,59.90
2019-03-28T02:53:54.803Z,60.00
2019-03-28T02:56:59.724Z,60.10
2019-03-28T03:00:04.827Z,60.10
2019-03-28T03:03:09.736Z,60.30
2019-03-28T03:06:14.631Z,60.30
2019-03-28T03:09:19.545Z,60.40
2019-03-28T03:12:24.521Z,60.40
2019-03-28T03:15:30.063Z,60.70
2019-03-28T03:18:54.043Z,61.10
2019-03-28T03:21:58.943Z,61.30
2019-03-28T03:25:03.869Z,61.50
2019-03-28T03:28:08.823Z,61.80
2019-03-28T03:31:20.294Z,62.00
2019-03-28T03:34:20.298Z,62.10
2019-03-28T03:37:25.218Z,62.60
2019-03-28T03:40:30.357Z,62.90
2019-03-28T03:43:35.252Z,63.20
2019-03-28T03:46:40.138Z,63.10
2019-03-28T03:49:45.031Z,63.40
2019-03-28T03:52:49.984Z,63.80
2019-03-28T03:55:54.791Z,63.40
2019-03-28T03:58:59.676Z,63.80
2019-03-28T04:02:04.560Z,64.00
2019-03-28T04:05:09.498Z,64.30
2019-03-28T04:08:14.397Z,63.80
2019-03-28T04:11:19.458Z,64.40
2019-03-28T04:14:24.530Z,64.20
2019-03-28T04:17:29.461Z,64.70
2019-03-28T04:20:34.351Z,65.20
2019-03-28T04:23:39.205Z,65.90
2019-03-28T04:26:44.081Z,65.70
2019-03-28T04:29:48.929Z,65.70
2019-03-28T04:32:53.775Z,66.00
2019-03-28T04:35:58.718Z,65.60
2019-03-28T04:39:05.099Z,66.10
2019-03-28T04:42:10.060Z,66.20
2019-03-28T04:45:15.050Z,66.50
2019-03-28T04:48:19.995Z,67.10
2019-03-28T04:51:24.836Z,67.50
2019-03-28T04:54:29.786Z,67.50
2019-03-28T04:57:34.678Z,67.70
2019-03-28T05:00:40.505Z,67.90
2019-03-28T05:03:45.412Z,68.40
2019-03-28T05:06:50.388Z,68.30
2019-03-28T05:09:55.478Z,67.80
2019-03-28T05:13:00.395Z,67.90
2019-03-28T05:16:05.265Z,67.90
2019-03-28T05:19:10.176Z,68.40
2019-03-28T05:22:15.091Z,68.80
2019-03-28T05:25:19.999Z,69.20
2019-03-28T05:28:25.431Z,69.40
2019-03-28T05:31:30.668Z,68.60
2019-03-28T05:34:35.497Z,68.70
2019-03-28T05:37:40.442Z,69.30
2019-03-28T05:40:45.336Z,69.10
2019-03-28T05:43:50.273Z,69.20
2019-03-28T05:46:55.193Z,70.60
2019-03-28T05:50:00.275Z,71.20
2019-03-28T05:53:24.207Z,72.10
2019-03-28T05:56:29.192Z,72.90
2019-03-28T05:59:34.083Z,72.70
2019-03-28T06:02:39.068Z,73.40
2019-03-28T06:05:44.092Z,73.00
2019-03-28T06:08:48.950Z,73.00
2019-03-28T06:11:54.551Z,74.10
2019-03-28T06:14:59.545Z,74.10
2019-03-28T06:18:04.494Z,75.30
2019-03-28T06:21:09.405Z,76.10
2019-03-28T06:24:14.315Z,76.70
2019-03-28T06:27:19.236Z,76.20
2019-03-28T06:30:24.070Z,76.00
2019-03-28T06:33:28.987Z,76.20
2019-03-28T06:36:33.887Z,76.30
2019-03-28T06:39:38.759Z,76.80
2019-03-28T06:42:43.523Z,76.70
2019-03-28T06:45:49.085Z,76.60
2019-03-28T06:48:54.050Z,76.50
2019-03-28T06:51:58.996Z,76.40
2019-03-28T06:55:05.338Z,76.90
2019-03-28T06:58:10.277Z,76.60
2019-03-28T07:01:15.278Z,76.60
2019-03-28T07:04:20.398Z,76.50
2019-03-28T07:07:25.271Z,76.60
2019-03-28T07:10:30.293Z,76.50
2019-03-28T07:13:35.203Z,76.70
2019-03-28T07:16:40.212Z,76.50
2019-03-28T07:19:45.151Z,76.40
2019-03-28T07:22:50.124Z,76.70
2019-03-28T07:25:55.034Z,77.00
2019-03-28T07:28:59.859Z,76.90
2019-03-28T07:32:04.761Z,77.10
2019-03-28T07:35:09.935Z,77.10
2019-03-28T07:38:14.828Z,77.10
2019-03-28T07:41:19.768Z,77.10
2019-03-28T07:44:24.608Z,77.10
2019-03-28T07:47:29.558Z,77.70
2019-03-28T07:50:34.542Z,77.60
2019-03-28T07:53:39.498Z,78.40
2019-03-28T07:56:44.399Z,78.60
2019-03-28T07:59:49.344Z,79.30
2019-03-28T08:02:54.710Z,79.80
2019-03-28T08:05:59.780Z,80.30
2019-03-28T08:09:06.858Z,80.20
2019-03-28T08:12:22.352Z,80.70
2019-03-28T08:15:18.522Z,80.40
2019-03-28T08:18:23.831Z,80.50
2019-03-28T08:21:28.799Z,80.50
2019-03-28T08:24:33.731Z,80.40
2019-03-28T08:27:39.157Z,80.90
2019-03-28T08:30:45.511Z,81.30
2019-03-28T08:33:50.494Z,82.20
2019-03-28T08:36:55.418Z,81.70
2019-03-28T08:40:00.359Z,81.30
2019-03-28T08:43:05.433Z,81.10
2019-03-28T08:46:10.329Z,81.10
2019-03-28T08:49:15.206Z,80.70
2019-03-28T08:52:20.120Z,80.10
2019-03-28T08:55:24.978Z,79.80
2019-03-28T08:58:29.888Z,79.50
2019-03-28T09:01:34.845Z,79.10
2019-03-28T09:04:39.729Z,78.60
2019-03-28T09:07:44.672Z,78.40
2019-03-28T09:11:08.298Z,78.50
2019-03-28T09:14:13.229Z,78.50
2019-03-28T09:17:18.147Z,78.70
2019-03-28T09:20:23.087Z,78.70
2019-03-28T09:23:29.174Z,78.30
2019-03-28T09:26:34.081Z,77.90
2019-03-28T09:29:38.987Z,77.80
2019-03-28T09:32:45.113Z,77.80
2019-03-28T09:35:50.066Z,77.70
2019-03-28T09:38:55.182Z,77.20
2019-03-28T09:42:00.167Z,76.90
2019-03-28T09:45:06.392Z,76.80
2019-03-28T09:48:11.804Z,76.70
2019-03-28T09:51:17.020Z,77.20
2019-03-28T09:54:21.902Z,76.60
2019-03-28T09:57:27.075Z,76.40
2019-03-28T10:00:32.899Z,76.80
2019-03-28T10:03:38.503Z,76.50
2019-03-28T10:06:43.785Z,76.20
2019-03-28T10:09:48.884Z,75.80
2019-03-28T10:12:53.799Z,75.70
2019-03-28T10:15:58.776Z,75.50
2019-03-28T10:19:03.671Z,75.60
2019-03-28T10:22:08.624Z,75.30
2019-03-28T10:25:14.454Z,75.20
2019-03-28T10:28:19.739Z,73.80
2019-03-28T10:31:24.658Z,73.90
2019-03-28T10:34:29.691Z,73.40
2019-03-28T10:37:34.613Z,73.30
2019-03-28T10:40:39.547Z,73.90
2019-03-28T10:43:44.427Z,73.60
2019-03-28T10:46:49.348Z,73.40
2019-03-28T10:49:54.236Z,73.20
2019-03-28T10:52:59.186Z,73.60
2019-03-28T10:56:04.163Z,73.00
2019-03-28T10:59:22.337Z,72.80
2019-03-28T11:02:15.819Z,72.60
2019-03-28T11:05:20.998Z,72.00
2019-03-28T11:08:25.919Z,72.30
2019-03-28T11:11:30.848Z,72.40
2019-03-28T11:14:35.844Z,72.30
2019-03-28T11:17:40.703Z,72.00
2019-03-28T11:20:45.597Z,71.60
2019-03-28T11:23:50.477Z,71.70
2019-03-28T11:26:55.420Z,71.50
2019-03-28T11:30:00.494Z,71.90
2019-03-28T11:33:06.507Z,70.70
2019-03-28T11:36:11.735Z,70.60
2019-03-28T11:39:16.715Z,71.60
2019-03-28T11:42:21.659Z,72.10
2019-03-28T11:45:27.187Z,71.80
2019-03-28T11:48:32.177Z,71.60
2019-03-28T11:51:37.081Z,71.90
2019-03-28T11:54:42.008Z,72.10
2019-03-28T11:57:46.947Z,71.60
2019-03-28T12:00:52.102Z,71.70
2019-03-28T12:03:57.047Z,71.20
2019-03-28T12:07:01.959Z,71.00
2019-03-28T12:10:09.545Z,70.70
2019-03-28T12:13:14.498Z,71.10
2019-03-28T12:16:19.394Z,71.10
2019-03-28T12:19:24.311Z,70.40
2019-03-28T12:22:29.175Z,70.30
2019-03-28T12:25:34.092Z,70.90
2019-03-28T12:28:39.015Z,70.20
2019-03-28T12:31:43.867Z,70.30
2019-03-28T12:34:48.760Z,70.30
2019-03-28T12:37:53.625Z,70.40
2019-03-28T12:40:58.539Z,70.30
2019-03-28T12:44:03.565Z,70.40
2019-03-28T12:47:08.464Z,70.50
2019-03-28T12:50:14.131Z,70.30
2019-03-28T12:53:19.020Z,70.30
2019-03-28T12:56:26.280Z,70.30
2019-03-28T12:59:33.546Z,70.60
2019-03-28T13:02:37.278Z,70.80
2019-03-28T13:05:42.198Z,70.80
2019-03-28T13:08:47.165Z,70.90
2019-03-28T13:11:53.779Z,70.90
2019-03-28T13:14:58.750Z,70.90
2019-03-28T13:18:03.671Z,71.00
2019-03-28T13:21:13.631Z,70.80
2019-03-28T13:24:15.184Z,71.00
2019-03-28T13:27:20.309Z,71.30
2019-03-28T13:30:25.595Z,71.30
2019-03-28T13:33:49.319Z,71.10
2019-03-28T13:36:54.221Z,71.00
2019-03-28T13:39:59.399Z,71.10
2019-03-28T13:43:05.891Z,71.10
2019-03-28T13:46:10.859Z,71.10
2019-03-28T13:49:15.668Z,71.20
2019-03-28T13:52:20.536Z,71.20
2019-03-28T13:55:25.435Z,71.20
2019-03-28T13:58:30.394Z,71.30
2019-03-28T14:01:35.321Z,71.40
2019-03-28T14:04:40.261Z,72.30
2019-03-28T14:07:46.640Z,71.60
2019-03-28T14:10:51.432Z,71.90
2019-03-28T14:13:56.332Z,72.00
2019-03-28T14:17:01.208Z,72.10
2019-03-28T14:20:06.789Z,71.90
2019-03-28T14:23:11.894Z,71.70
2019-03-28T14:26:16.837Z,71.50
2019-03-28T14:29:21.780Z,71.40
2019-03-28T14:32:26.811Z,71.70
2019-03-28T14:35:31.752Z,71.80
2019-03-28T14:38:37.589Z,71.50
2019-03-28T14:41:42.735Z,71.50
2019-03-28T14:44:47.671Z,71.70
2019-03-28T14:47:52.585Z,71.60
2019-03-28T14:50:57.554Z,71.50
2019-03-28T14:54:02.463Z,71.20
2019-03-28T14:57:07.565Z,71.20
2019-03-28T15:00:21.961Z,71.00
2019-03-28T15:03:29.671Z,71.00
2019-03-28T15:06:34.604Z,70.70
2019-03-28T15:09:39.435Z,70.40
2019-03-28T15:12:44.289Z,70.20
2019-03-28T15:15:49.206Z,70.10
2019-03-28T15:18:54.180Z,69.80
2019-03-28T15:22:00.674Z,69.60
2019-03-28T15:25:06.852Z,69.30
2019-03-28T15:28:11.777Z,69.30
2019-03-28T15:31:16.750Z,69.20
2019-03-28T15:34:21.612Z,69.20
2019-03-28T15:37:28.110Z,69.20
2019-03-28T15:40:33.040Z,68.80
2019-03-28T15:43:38.959Z,68.70
2019-03-28T15:46:43.972Z,68.70
2019-03-28T15:49:48.954Z,69.70
2019-03-28T15:52:53.779Z,70.00
2019-03-28T15:55:58.870Z,69.90
2019-03-28T15:59:04.879Z,70.40
2019-03-28T16:02:11.090Z,71.20
2019-03-28T16:05:17.206Z,72.80
2019-03-28T16:08:22.140Z,73.10
2019-03-28T16:11:27.141Z,73.70
2019-03-28T16:14:32.059Z,73.40
2019-03-28T16:17:36.900Z,74.30
2019-03-28T16:20:41.843Z,74.50
2019-03-28T16:23:46.737Z,75.00
2019-03-28T16:26:51.595Z,75.40
2019-03-28T16:29:56.526Z,75.50
2019-03-28T16:33:01.464Z,76.40
2019-03-28T16:36:06.420Z,76.50
2019-03-28T16:39:11.377Z,76.30
2019-03-28T16:42:16.311Z,77.90
2019-03-28T16:45:21.232Z,78.40
2019-03-28T16:48:26.138Z,78.20
2019-03-28T16:51:31.083Z,79.00
2019-03-28T16:54:36.004Z,78.90
2019-03-28T16:57:40.888Z,79.00
2019-03-28T17:00:45.785Z,78.80
2019-03-28T17:03:50.735Z,79.10
2019-03-28T17:06:55.617Z,78.90
2019-03-28T17:10:01.744Z,78.80
2019-03-28T17:13:07.664Z,79.30
2019-03-28T17:16:12.937Z,78.60
2019-03-28T17:19:18.007Z,79.50
2019-03-28T17:22:22.889Z,79.00
2019-03-28T17:25:27.810Z,79.30
2019-03-28T17:28:32.728Z,79.30
2019-03-28T17:31:37.634Z,79.90
2019-03-28T17:34:45.811Z,78.40
2019-03-28T17:37:49.298Z,78.90
2019-03-28T17:40:54.301Z,79.10
2019-03-28T17:43:59.201Z,79.40
2019-03-28T17:47:04.147Z,80.20
2019-03-28T17:50:10.025Z,81.00
2019-03-28T17:53:15.012Z,80.30
2019-03-28T17:56:19.907Z,80.00
2019-03-28T17:59:24.878Z,80.60
2019-03-28T18:02:29.816Z,80.40
2019-03-28T18:05:34.788Z,80.30
2019-03-28T18:08:39.816Z,80.90
2019-03-28T18:11:48.048Z,80.60
2019-03-28T18:14:53.131Z,80.20
2019-03-28T18:17:58.064Z,80.30
2019-03-28T18:21:02.973Z,79.00
2019-03-28T18:24:07.899Z,78.30
2019-03-28T18:27:12.775Z,77.90
2019-03-28T18:30:19.878Z,77.40
2019-03-28T18:33:25.060Z,77.10
2019-03-28T18:36:30.120Z,76.70
2019-03-28T18:39:35.135Z,76.50
2019-03-28T18:42:40.097Z,76.40
2019-03-28T18:45:45.108Z,76.20
2019-03-28T18:48:50.042Z,76.20
2019-03-28T18:51:55.077Z,75.90
2019-03-28T18:55:00.031Z,75.80
2019-03-28T18:58:05.621Z,75.60
2019-03-28T19:01:10.966Z,75.50
2019-03-28T19:04:15.870Z,75.50
2019-03-28T19:07:20.802Z,75.20
2019-03-28T19:10:28.778Z,75.00
2019-03-28T19:13:33.747Z,74.90
2019-03-28T19:16:38.634Z,74.60
2019-03-28T19:19:44.595Z,74.60
2019-03-28T19:22:50.356Z,74.40
2019-03-28T19:25:55.451Z,74.30
2019-03-28T19:29:00.360Z,74.40
2019-03-28T19:32:05.331Z,74.10
2019-03-28T19:35:11.841Z,74.00
2019-03-28T19:38:17.244Z,73.90
2019-03-28T19:41:22.166Z,73.90
2019-03-28T19:44:27.218Z,73.70
2019-03-28T19:47:32.052Z,73.80
2019-03-28T19:50:36.996Z,73.60
2019-03-28T19:53:43.918Z,73.40
2019-03-28T19:56:49.212Z,73.30
2019-03-28T19:59:54.140Z,73.10
2019-03-28T20:03:00.540Z,73.00
2019-03-28T20:06:05.883Z,72.90
2019-03-28T20:09:16.438Z,72.90
2019-03-28T20:12:17.358Z,72.90
2019-03-28T20:15:22.391Z,72.80
2019-03-28T20:18:27.307Z,72.70
2019-03-28T20:21:32.227Z,72.50
2019-03-28T20:24:37.043Z,72.50
2019-03-28T20:27:42.057Z,72.40
2019-03-28T20:30:47.235Z,72.30
2019-03-28T20:33:52.151Z,72.30
2019-03-28T20:36:57.012Z,72.10
2019-03-28T20:40:02.379Z,72.10
2019-03-28T20:43:08.269Z,72.10
2019-03-28T20:46:14.408Z,72.80
2019-03-28T20:49:19.375Z,71.80
2019-03-28T20:52:24.361Z,71.90
2019-03-28T20:55:29.988Z,71.80
2019-03-28T20:58:34.997Z,71.50
2019-03-28T21:01:42.467Z,71.20
2019-03-28T21:04:48.591Z,71.20
2019-03-28T21:07:53.518Z,71.20
2019-03-28T21:10:59.181Z,71.10
2019-03-28T21:14:04.851Z,70.90
2019-03-28T21:17:09.781Z,71.00
2019-03-28T21:20:14.960Z,71.00
2019-03-28T21:23:19.956Z,70.90
2019-03-28T21:26:24.810Z,71.90
2019-03-28T21:29:29.750Z,71.00
2019-03-28T21:32:34.649Z,70.90
2019-03-28T21:35:39.597Z,70.90
2019-03-28T21:38:44.502Z,71.00
2019-03-28T21:41:49.515Z,70.90
2019-03-28T21:44:58.117Z,70.90
2019-03-28T21:48:01.609Z,70.90
2019-03-28T21:51:06.690Z,70.80
2019-03-28T21:54:11.662Z,70.80
2019-03-28T21:57:16.579Z,70.70
2019-03-28T22:00:21.929Z,70.70
2019-03-28T22:03:26.932Z,70.70
2019-03-28T22:06:42.432Z,71.00
2019-03-28T22:09:40.057Z,70.60
2019-03-28T22:12:46.544Z,70.60
2019-03-28T22:15:51.489Z,70.60
2019-03-28T22:18:56.427Z,70.60
2019-03-28T22:22:01.942Z,70.40
2019-03-28T22:25:07.755Z,70.40
2019-03-28T22:28:12.652Z,70.40
2019-03-28T22:31:17.638Z,70.40
2019-03-28T22:34:22.497Z,70.40
2019-03-28T22:37:28.199Z,70.40
2019-03-28T22:40:33.112Z,70.40
2019-03-28T22:43:38.937Z,70.30
2019-03-28T22:46:43.995Z,70.20
2019-03-28T22:49:48.867Z,70.00
2019-03-28T22:52:53.764Z,69.90
2019-03-28T22:55:58.624Z,69.90
2019-03-28T22:59:03.446Z,69.80
2019-03-28T23:02:08.552Z,69.80
2019-03-28T23:05:13.683Z,69.60
2019-03-28T23:08:18.786Z,69.60
2019-03-28T23:11:23.806Z,69.40
2019-03-28T23:14:28.745Z,69.40
2019-03-28T23:17:33.631Z,69.40
2019-03-28T23:20:38.543Z,69.10
2019-03-28T23:23:43.408Z,70.10
2019-03-28T23:26:48.341Z,69.10
2019-03-28T23:29:53.269Z,69.10
2019-03-28T23:32:58.488Z,69.10
2019-03-28T23:36:03.313Z,69.10
2019-03-28T23:39:08.787Z,69.10
2019-03-28T23:42:14.294Z,69.00
2019-03-28T23:45:20.304Z,69.00
2019-03-28T23:48:25.183Z,69.00
2019-03-28T23:51:30.034Z,69.00
2019-03-28T23:54:34.907Z,68.90
2019-03-28T23:57:39.847Z,68.80
